Time;durP1;ratioP1;P1;durP2;ratioP2;P2;SDS_P1;SDS_P2;PMS_P1;PMS_P2;Temp;Humidity;BMP_temperature;BMP_pressure;BME280_temperature;BME280_humidity;BME280_pressure;Samples;Min_cycle;Max_cycle;Signal;HPM_P1;HPM_P2
2021/01/09 00:00:58;;;;;;;1.73;1.63;;;0.90;99.90;;;;;;5018307;28;20395;-76
2021/01/09 00:03:24;;;;;;;1.63;1.52;;;0.90;99.90;;;;;;4971462;28;20980;-77
2021/01/09 00:05:51;;;;;;;2.20;1.77;;;0.90;99.90;;;;;;5004260;28;20990;-77
2021/01/09 00:08:17;;;;;;;1.70;1.60;;;1.00;99.90;;;;;;5010159;28;20446;-77
2021/01/09 00:10:43;;;;;;;1.88;1.77;;;1.00;99.90;;;;;;4994750;28;20430;-76
2021/01/09 00:13:08;;;;;;;1.83;1.63;;;1.00;99.90;;;;;;4981361;28;20402;-78
2021/01/09 00:15:34;;;;;;;1.70;1.60;;;1.00;99.90;;;;;;4981838;28;20395;-75
2021/01/09 00:18:00;;;;;;;1.45;1.40;;;1.00;99.90;;;;;;4965537;28;20415;-76
2021/01/09 00:20:26;;;;;;;1.80;1.70;;;1.00;99.90;;;;;;4980793;28;20449;-78
2021/01/09 00:22:51;;;;;;;1.83;1.73;;;1.00;99.90;;;;;;5011618;28;20439;-78
2021/01/09 00:25:17;;;;;;;2.03;1.83;;;1.00;99.90;;;;;;4985935;28;20414;-79
2021/01/09 00:27:44;;;;;;;2.00;1.90;;;1.00;99.90;;;;;;5001270;28;20853;-79
2021/01/09 00:30:10;;;;;;;2.00;1.90;;;0.90;99.90;;;;;;4986545;28;20442;-79
2021/01/09 00:32:36;;;;;;;2.22;2.03;;;0.90;99.90;;;;;;4991932;28;20446;-80
2021/01/09 00:35:04;;;;;;;1.60;1.50;;;0.90;99.90;;;;;;5005098;28;20395;-81
2021/01/09 00:37:30;;;;;;;3.70;1.80;;;0.90;99.90;;;;;;4968160;28;20401;-78
2021/01/09 00:39:55;;;;;;;2.17;2.07;;;1.10;99.90;;;;;;5031766;28;20387;-78
2021/01/09 00:42:21;;;;;;;1.90;1.80;;;0.90;99.90;;;;;;4999229;28;21041;-77
2021/01/09 00:44:47;;;;;;;2.53;2.03;;;0.90;99.90;;;;;;4987385;28;20410;-78
2021/01/09 00:47:13;;;;;;;2.43;2.13;;;1.00;99.90;;;;;;4999339;28;20387;-78
2021/01/09 00:49:38;;;;;;;2.17;1.98;;;0.90;99.90;;;;;;4998194;28;20847;-78
2021/01/09 00:52:04;;;;;;;1.75;1.65;;;0.90;99.90;;;;;;4995746;28;20477;-78
2021/01/09 00:54:31;;;;;;;2.05;1.95;;;0.90;99.90;;;;;;5003840;28;20392;-79
2021/01/09 00:56:57;;;;;;;2.35;2.13;;;0.90;99.90;;;;;;5017573;28;20396;-78
2021/01/09 00:59:23;;;;;;;2.17;1.97;;;0.90;99.90;;;;;;4982297;28;20410;-78
2021/01/09 01:01:56;;;;;;;2.50;2.30;;;0.80;99.90;;;;;;4997829;28;20446;-78
2021/01/09 01:04:22;;;;;;;2.40;2.13;;;0.80;99.90;;;;;;4984208;28;20589;-77
2021/01/09 01:06:48;;;;;;;2.15;1.95;;;0.90;99.90;;;;;;5015270;28;20452;-80
2021/01/09 01:09:14;;;;;;;2.40;2.20;;;0.90;99.90;;;;;;5015967;28;20399;-77
2021/01/09 01:11:40;;;;;;;2.28;2.08;;;0.80;99.90;;;;;;4990282;28;20486;-78
2021/01/09 01:14:05;;;;;;;2.40;2.20;;;0.80;99.90;;;;;;5034183;28;20395;-77
2021/01/09 01:16:31;;;;;;;2.72;2.53;;;0.80;99.90;;;;;;4995061;28;20490;-78
2021/01/09 01:18:57;;;;;;;2.90;2.30;;;0.90;99.90;;;;;;4996238;28;20966;-79
2021/01/09 01:21:22;;;;;;;3.10;2.50;;;0.80;99.90;;;;;;4986810;28;20393;-78
2021/01/09 01:23:48;;;;;;;2.88;2.47;;;0.80;99.90;;;;;;4981008;28;20508;-81
2021/01/09 01:26:14;;;;;;;2.67;2.47;;;0.90;99.90;;;;;;5012619;28;20438;-79
2021/01/09 01:28:40;;;;;;;2.93;2.63;;;0.80;99.90;;;;;;4964487;28;20494;-78
2021/01/09 01:31:06;;;;;;;3.60;2.67;;;0.80;99.90;;;;;;4995660;28;20407;-78
2021/01/09 01:33:32;;;;;;;2.75;2.55;;;0.80;99.90;;;;;;5007582;28;20416;-79
2021/01/09 01:35:58;;;;;;;3.47;3.10;;;0.80;99.90;;;;;;4967893;28;20435;-80
2021/01/09 01:38:24;;;;;;;3.45;3.00;;;0.80;99.90;;;;;;4994363;28;20389;-82
2021/01/09 01:40:50;;;;;;;3.45;2.92;;;0.80;99.90;;;;;;5012082;28;20425;-81
2021/01/09 01:43:15;;;;;;;3.28;2.97;;;0.90;99.90;;;;;;4984633;28;20424;-79
2021/01/09 01:45:42;;;;;;;3.25;2.97;;;0.80;99.90;;;;;;4980037;28;20902;-74
2021/01/09 01:48:09;;;;;;;4.07;3.28;;;0.80;99.90;;;;;;4996935;28;20914;-78
2021/01/09 01:50:35;;;;;;;3.30;2.97;;;0.80;99.90;;;;;;5002434;28;20420;-77
2021/01/09 01:53:01;;;;;;;3.42;3.13;;;0.80;99.90;;;;;;4983969;28;20413;-77
2021/01/09 01:55:27;;;;;;;3.45;3.15;;;0.80;99.90;;;;;;4996701;28;20480;-77
2021/01/09 01:57:53;;;;;;;3.88;3.47;;;0.70;99.90;;;;;;5015413;28;20406;-77
2021/01/09 02:00:24;;;;;;;3.17;2.85;;;0.70;99.90;;;;;;4999314;28;20748;-78
2021/01/09 02:02:59;;;;;;;4.28;3.70;;;0.80;99.90;;;;;;4995183;28;20407;-77
2021/01/09 02:05:26;;;;;;;3.95;3.35;;;0.80;99.90;;;;;;4995458;28;20928;-78
2021/01/09 02:07:54;;;;;;;4.25;3.53;;;0.80;99.90;;;;;;5005976;28;20401;-77
2021/01/09 02:10:20;;;;;;;4.13;3.72;;;0.80;99.90;;;;;;4995292;28;20404;-77
2021/01/09 02:12:49;;;;;;;5.53;4.10;;;0.80;99.90;;;;;;4993235;28;20417;-77
2021/01/09 02:15:15;;;;;;;3.72;3.40;;;0.90;99.90;;;;;;4984473;28;20410;-77
2021/01/09 02:17:42;;;;;;;4.15;3.75;;;0.80;99.90;;;;;;4998761;28;20446;-77
2021/01/09 02:20:08;;;;;;;4.40;3.88;;;0.80;99.90;;;;;;5015327;28;20395;-77
2021/01/09 02:22:43;;;;;;;4.72;3.88;;;0.80;99.90;;;;;;5015449;28;20406;-81
2021/01/09 02:25:09;;;;;;;3.72;3.42;;;0.90;99.90;;;;;;5001033;28;20407;-77
2021/01/09 02:27:35;;;;;;;4.75;3.90;;;0.90;99.90;;;;;;4998259;28;20405;-77
2021/01/09 02:30:13;;;;;;;4.88;3.60;;;0.90;99.90;;;;;;4998387;28;20411;-77
2021/01/09 02:32:48;;;;;;;4.28;3.63;;;0.80;99.90;;;;;;5031514;28;21074;-78
2021/01/09 02:35:16;;;;;;;3.83;3.40;;;0.90;99.90;;;;;;4986592;28;20421;-78
2021/01/09 02:37:43;;;;;;;3.70;3.40;;;0.80;99.90;;;;;;5011735;28;20391;-78
2021/01/09 02:40:13;;;;;;;4.53;3.80;;;0.80;99.90;;;;;;5010744;28;20423;-78
2021/01/09 02:42:39;;;;;;;3.63;3.25;;;0.80;99.90;;;;;;4994056;28;20401;-77
2021/01/09 02:45:07;;;;;;;5.15;3.78;;;0.80;99.90;;;;;;4983214;28;20413;-77
2021/01/09 02:47:32;;;;;;;4.72;4.00;;;0.90;99.90;;;;;;4989395;28;20945;-77
2021/01/09 02:49:58;;;;;;;4.10;3.63;;;0.90;99.90;;;;;;4980037;28;20398;-78
2021/01/09 02:52:24;;;;;;;4.40;3.58;;;0.90;99.90;;;;;;5019830;28;20390;-80
2021/01/09 02:54:49;;;;;;;4.00;3.60;;;0.90;99.90;;;;;;5002618;28;20398;-79
2021/01/09 02:57:15;;;;;;;6.93;3.78;;;0.90;99.90;;;;;;5012491;28;20478;-81
2021/01/09 02:59:41;;;;;;;4.50;3.80;;;0.80;99.90;;;;;;4965876;28;20737;-78
2021/01/09 03:02:07;;;;;;;4.67;3.33;;;0.90;99.90;;;;;;5013642;28;20399;-79
2021/01/09 03:04:32;;;;;;;4.63;3.95;;;0.90;99.90;;;;;;4982976;28;20842;-79
2021/01/09 03:06:58;;;;;;;4.97;4.22;;;0.90;99.90;;;;;;4998935;28;20462;-78
2021/01/09 03:09:23;;;;;;;4.70;3.90;;;0.90;99.90;;;;;;5000275;28;20417;-77
2021/01/09 03:11:49;;;;;;;4.78;4.28;;;0.90;99.90;;;;;;4987156;28;20761;-78
2021/01/09 03:14:15;;;;;;;5.95;4.93;;;0.90;99.90;;;;;;4984378;28;20403;-78
2021/01/09 03:16:40;;;;;;;5.20;3.80;;;0.90;99.90;;;;;;5015369;28;20394;-78
2021/01/09 03:19:06;;;;;;;6.28;4.70;;;0.90;99.90;;;;;;4983272;28;20415;-78
2021/01/09 03:21:32;;;;;;;5.47;4.70;;;0.80;99.90;;;;;;4998515;28;20399;-77
2021/01/09 03:23:57;;;;;;;5.70;4.57;;;0.80;99.90;;;;;;4999005;28;20422;-79
2021/01/09 03:26:23;;;;;;;6.03;4.60;;;0.80;99.90;;;;;;5012611;28;20438;-78
2021/01/09 03:28:49;;;;;;;5.07;4.57;;;0.80;99.90;;;;;;4981447;28;20422;-77
2021/01/09 03:31:15;;;;;;;6.00;4.57;;;0.80;99.90;;;;;;4996669;28;20403;-78
2021/01/09 03:33:40;;;;;;;5.57;4.83;;;0.90;99.90;;;;;;4998953;28;20399;-77
2021/01/09 03:36:06;;;;;;;5.97;4.63;;;0.90;99.90;;;;;;5015252;28;20466;-77
2021/01/09 03:38:32;;;;;;;5.80;4.80;;;0.90;99.90;;;;;;4979013;28;20405;-78
2021/01/09 03:40:58;;;;;;;6.27;4.80;;;0.90;99.90;;;;;;5017442;28;20414;-78
2021/01/09 03:43:23;;;;;;;5.38;4.88;;;0.90;99.90;;;;;;4998620;28;20418;-78
2021/01/09 03:45:49;;;;;;;6.57;5.60;;;1.00;99.90;;;;;;5013060;28;21065;-78
2021/01/09 03:48:15;;;;;;;5.50;4.90;;;0.90;99.90;;;;;;4997452;28;20495;-78
2021/01/09 03:50:41;;;;;;;6.80;5.25;;;0.80;99.90;;;;;;4977780;28;20868;-79
2021/01/09 03:53:06;;;;;;;5.90;5.22;;;0.80;99.90;;;;;;5001288;28;20411;-81
2021/01/09 03:55:32;;;;;;;6.50;5.43;;;0.80;99.90;;;;;;5009134;28;20403;-78
2021/01/09 03:57:57;;;;;;;6.93;5.50;;;0.90;99.90;;;;;;4962287;28;20398;-78
2021/01/09 04:00:23;;;;;;;6.82;5.55;;;0.80;99.90;;;;;;5008847;28;20398;-78
2021/01/09 04:02:49;;;;;;;6.97;5.57;;;0.80;99.90;;;;;;4973343;28;20499;-78
2021/01/09 04:05:15;;;;;;;6.80;5.57;;;0.80;99.90;;;;;;4995247;28;20515;-81
2021/01/09 04:07:40;;;;;;;6.03;5.30;;;0.80;99.90;;;;;;4961904;28;20387;-79
2021/01/09 04:10:06;;;;;;;7.30;5.38;;;0.80;99.90;;;;;;4999226;28;20461;-78
2021/01/09 04:12:32;;;;;;;6.88;5.47;;;0.80;99.90;;;;;;5026957;28;20793;-78
2021/01/09 04:14:58;;;;;;;9.63;5.70;;;0.80;99.90;;;;;;5011410;28;20438;-78
2021/01/09 04:17:23;;;;;;;6.72;5.60;;;0.80;99.90;;;;;;4995272;28;20412;-78
2021/01/09 04:19:49;;;;;;;6.18;5.10;;;0.80;99.90;;;;;;4992556;28;20492;-78
2021/01/09 04:22:15;;;;;;;6.47;5.47;;;0.80;99.90;;;;;;4999263;28;20444;-79
2021/01/09 04:24:40;;;;;;;6.43;5.18;;;0.80;99.90;;;;;;4998747;28;20391;-78
2021/01/09 04:27:06;;;;;;;6.27;5.13;;;0.80;99.90;;;;;;5014733;28;20375;-77
2021/01/09 04:29:32;;;;;;;7.13;5.77;;;0.80;99.90;;;;;;5013521;28;20883;-77
2021/01/09 04:31:57;;;;;;;7.50;5.10;;;0.80;99.90;;;;;;4968947;28;20389;-77
2021/01/09 04:34:24;;;;;;;5.43;4.85;;;1.00;99.90;;;;;;4994359;28;20447;-77
2021/01/09 04:36:50;;;;;;;6.20;5.15;;;0.80;99.90;;;;;;5013704;28;20918;-77
2021/01/09 04:39:15;;;;;;;5.70;5.10;;;0.80;99.90;;;;;;4983495;28;20387;-79
2021/01/09 04:41:41;;;;;;;5.77;5.17;;;0.80;99.90;;;;;;5013213;28;20387;-79
2021/01/09 04:44:08;;;;;;;5.85;5.35;;;0.80;99.90;;;;;;5013271;28;20409;-81
2021/01/09 04:46:37;;;;;;;6.40;5.03;;;0.80;99.90;;;;;;4996046;28;21065;-80
2021/01/09 04:49:03;;;;;;;7.22;5.63;;;0.80;99.90;;;;;;4979521;28;20430;-80
2021/01/09 04:51:28;;;;;;;7.55;5.43;;;0.80;99.90;;;;;;5003582;28;20444;-77
2021/01/09 04:53:54;;;;;;;7.07;5.65;;;0.70;99.90;;;;;;4998349;28;20976;-79
2021/01/09 04:56:20;;;;;;;6.50;5.10;;;0.80;99.90;;;;;;5012172;28;20737;-80
2021/01/09 04:58:45;;;;;;;7.03;5.38;;;0.70;99.90;;;;;;4995786;28;20399;-81
2021/01/09 05:01:12;;;;;;;10.20;6.03;;;0.70;99.90;;;;;;4980398;28;20425;-77
2021/01/09 05:03:37;;;;;;;7.03;5.70;;;0.70;99.90;;;;;;4959558;28;20391;-80
2021/01/09 05:06:03;;;;;;;6.30;5.47;;;0.70;99.90;;;;;;4980449;28;20544;-78
2021/01/09 05:08:29;;;;;;;6.13;4.97;;;0.70;99.90;;;;;;4981097;28;20482;-77
2021/01/09 05:10:55;;;;;;;6.20;5.35;;;0.70;99.90;;;;;;5012057;28;20955;-78
2021/01/09 05:13:23;;;;;;;6.60;5.90;;;0.70;99.90;;;;;;4996477;28;20445;-78
2021/01/09 05:15:49;;;;;;;6.82;5.63;;;0.80;99.90;;;;;;4998682;28;20396;-77
2021/01/09 05:18:17;;;;;;;8.93;5.78;;;0.70;99.90;;;;;;4965126;28;20400;-78
2021/01/09 05:20:45;;;;;;;6.32;5.50;;;0.80;99.90;;;;;;4969460;28;20400;-79
2021/01/09 05:23:11;;;;;;;7.72;5.70;;;0.70;99.90;;;;;;4972352;28;20406;-77
2021/01/09 05:25:37;;;;;;;8.10;6.55;;;0.70;99.90;;;;;;4994586;28;20430;-79
2021/01/09 05:28:04;;;;;;;7.15;5.65;;;0.70;99.90;;;;;;4980470;28;20403;-78
2021/01/09 05:30:30;;;;;;;6.57;5.43;;;0.70;99.90;;;;;;4979214;28;20392;-79
2021/01/09 05:32:55;;;;;;;7.97;6.38;;;0.80;99.90;;;;;;4997106;28;20411;-78
2021/01/09 05:35:21;;;;;;;6.45;5.47;;;0.70;99.90;;;;;;4993692;28;20488;-77
2021/01/09 05:37:50;;;;;;;7.13;5.90;;;0.80;99.90;;;;;;4977334;28;21200;-79
2021/01/09 05:40:19;;;;;;;7.30;5.65;;;0.70;99.90;;;;;;4988675;28;20438;-80
2021/01/09 05:42:44;;;;;;;6.77;5.83;;;0.70;99.90;;;;;;5011677;28;20399;-78
2021/01/09 05:45:11;;;;;;;7.40;5.70;;;0.70;99.90;;;;;;4979858;28;20765;-76
2021/01/09 05:47:37;;;;;;;6.45;5.70;;;0.70;99.90;;;;;;4993380;28;20444;-78
2021/01/09 05:50:04;;;;;;;5.97;5.47;;;0.70;99.90;;;;;;4962318;28;20494;-79
2021/01/09 05:52:29;;;;;;;6.82;6.00;;;0.70;99.90;;;;;;4983546;28;20390;-78
2021/01/09 05:54:58;;;;;;;9.27;6.00;;;0.70;99.90;;;;;;4980015;28;20426;-76
2021/01/09 05:57:31;;;;;;;7.45;5.57;;;0.60;99.90;;;;;;5004123;28;20461;-78
2021/01/09 05:59:58;;;;;;;7.40;6.53;;;0.60;99.90;;;;;;4993516;28;20423;-78
2021/01/09 06:02:23;;;;;;;6.60;5.90;;;0.60;99.90;;;;;;4993438;28;20398;-78
2021/01/09 06:04:49;;;;;;;7.87;6.03;;;0.60;99.90;;;;;;4992710;28;20407;-79
2021/01/09 06:07:20;;;;;;;7.03;5.93;;;0.60;99.90;;;;;;4977760;28;20395;-77
2021/01/09 06:10:21;;;;;;;8.50;6.13;;;0.60;99.90;;;;;;5014418;28;20553;-77
2021/01/09 06:13:01;;;;;;;8.82;6.22;;;0.60;99.90;;;;;;4962465;28;20407;-81
2021/01/09 06:15:33;;;;;;;7.15;6.18;;;0.60;99.90;;;;;;4976081;28;20799;-79
2021/01/09 06:17:59;;;;;;;7.18;5.90;;;0.60;99.90;;;;;;5000143;28;20895;-76
2021/01/09 06:20:26;;;;;;;7.63;6.33;;;0.60;99.90;;;;;;4993933;28;20416;-78
2021/01/09 06:22:53;;;;;;;6.70;5.60;;;0.50;99.90;;;;;;5008102;28;20452;-77
2021/01/09 06:25:19;;;;;;;6.68;5.65;;;0.50;99.90;;;;;;4976942;28;20485;-79
2021/01/09 06:27:48;;;;;;;6.53;5.83;;;0.60;99.90;;;;;;4976551;28;21212;-77
2021/01/09 06:30:14;;;;;;;6.75;5.85;;;0.60;99.90;;;;;;4978501;28;20420;-82
2021/01/09 06:32:40;;;;;;;6.63;5.95;;;0.60;99.90;;;;;;5004854;28;20494;-81
2021/01/09 06:35:07;;;;;;;8.43;6.40;;;0.60;99.90;;;;;;4960034;28;20542;-80
2021/01/09 06:37:33;;;;;;;7.78;6.10;;;0.60;99.90;;;;;;5008250;28;20391;-78
2021/01/09 06:39:59;;;;;;;6.55;5.70;;;0.50;99.90;;;;;;4970033;28;21073;-77
2021/01/09 06:42:24;;;;;;;7.18;6.30;;;0.60;99.90;;;;;;4985426;28;20423;-78
2021/01/09 06:44:51;;;;;;;6.97;5.90;;;0.60;99.90;;;;;;5008239;28;20534;-75
2021/01/09 06:47:24;;;;;;;7.85;6.00;;;0.50;99.90;;;;;;4976389;28;20454;-82
2021/01/09 06:49:49;;;;;;;7.55;5.88;;;0.50;99.90;;;;;;4976869;28;20414;-79
2021/01/09 06:52:15;;;;;;;6.27;5.20;;;0.50;99.90;;;;;;4971645;28;20403;-80
2021/01/09 06:54:47;;;;;;;6.40;5.63;;;0.50;99.90;;;;;;5028414;28;20393;-76
2021/01/09 06:57:16;;;;;;;9.65;7.40;;;0.50;99.90;;;;;;5009621;28;20423;-80
2021/01/09 06:59:46;;;;;;;6.63;5.50;;;0.60;99.90;;;;;;4993281;28;20402;-75
2021/01/09 07:02:19;;;;;;;7.78;6.13;;;0.60;99.90;;;;;;4953874;28;20418;-78
2021/01/09 07:04:58;;;;;;;6.13;5.15;;;0.60;99.90;;;;;;4972849;28;20409;-80
2021/01/09 07:07:36;;;;;;;7.88;5.93;;;0.60;99.90;;;;;;5010419;28;20391;-77
2021/01/09 07:10:10;;;;;;;7.97;5.93;;;0.60;99.90;;;;;;5010795;28;20391;-81
2021/01/09 07:12:36;;;;;;;8.05;5.57;;;0.60;99.90;;;;;;5016115;28;20395;-78
2021/01/09 07:15:06;;;;;;;7.63;5.82;;;0.60;99.90;;;;;;4977634;28;20398;-76
2021/01/09 07:17:38;;;;;;;8.68;5.90;;;0.60;99.90;;;;;;4994965;28;20394;-77
2021/01/09 07:20:06;;;;;;;6.55;5.20;;;0.60;99.90;;;;;;4976881;28;20418;-77
2021/01/09 07:22:33;;;;;;;6.68;5.97;;;0.60;99.90;;;;;;4994909;28;20374;-77
2021/01/09 07:25:01;;;;;;;8.00;6.38;;;0.60;99.90;;;;;;5012999;28;20522;-76
2021/01/09 07:27:33;;;;;;;7.17;5.83;;;0.60;99.90;;;;;;4980797;28;20461;-79
2021/01/09 07:30:00;;;;;;;6.30;5.68;;;0.60;99.90;;;;;;4960315;28;20394;-80
2021/01/09 07:32:45;;;;;;;8.45;6.07;;;0.60;99.90;;;;;;4984610;28;20410;-78
2021/01/09 07:35:10;;;;;;;8.32;6.28;;;0.70;99.90;;;;;;4976757;28;20834;-76
2021/01/09 07:37:43;;;;;;;7.30;5.63;;;0.70;99.90;;;;;;4993072;28;20398;-77
2021/01/09 07:40:19;;;;;;;7.40;6.30;;;0.70;99.90;;;;;;4998185;28;20445;-80
2021/01/09 07:42:46;;;;;;;7.28;6.10;;;0.70;99.90;;;;;;4991511;28;20406;-77
2021/01/09 07:45:15;;;;;;;7.30;5.78;;;0.70;99.90;;;;;;5025532;28;20403;-79
2021/01/09 07:47:41;;;;;;;6.35;5.45;;;0.70;99.90;;;;;;4996186;28;20413;-77
2021/01/09 07:50:08;;;;;;;7.28;5.22;;;0.70;99.90;;;;;;4996457;28;20403;-77
2021/01/09 07:52:34;;;;;;;6.47;5.07;;;0.70;99.90;;;;;;4974205;28;20394;-77
2021/01/09 07:55:00;;;;;;;6.82;5.85;;;0.80;99.90;;;;;;4992444;28;20518;-77
2021/01/09 07:57:26;;;;;;;5.32;4.82;;;0.80;99.90;;;;;;4981143;28;20465;-77
2021/01/09 07:59:54;;;;;;;7.07;5.50;;;0.80;99.90;;;;;;5001762;28;20415;-75
2021/01/09 08:02:30;;;;;;;6.32;5.35;;;0.80;99.90;;;;;;5018830;28;20398;-76
2021/01/09 08:05:05;;;;;;;8.50;6.65;;;0.90;99.90;;;;;;5033594;28;20454;-78
2021/01/09 08:07:32;;;;;;;6.53;5.18;;;0.90;99.90;;;;;;5035254;28;20386;-80
2021/01/09 08:09:58;;;;;;;7.63;5.85;;;0.90;99.90;;;;;;5006691;28;20391;-77
2021/01/09 08:12:27;;;;;;;6.15;5.45;;;0.90;99.90;;;;;;5032665;28;20442;-76
2021/01/09 08:14:53;;;;;;;7.60;5.63;;;0.90;99.90;;;;;;4995866;28;20392;-78
2021/01/09 08:17:20;;;;;;;6.40;5.70;;;0.80;99.90;;;;;;4963798;28;20391;-73
2021/01/09 08:19:46;;;;;;;6.25;5.18;;;0.80;99.90;;;;;;5023345;28;20393;-73
2021/01/09 08:22:12;;;;;;;6.18;5.30;;;0.90;99.90;;;;;;5015403;28;21211;-74
2021/01/09 08:24:37;;;;;;;5.90;4.80;;;0.90;99.90;;;;;;4980289;28;20429;-72
2021/01/09 08:27:04;;;;;;;7.63;6.57;;;0.90;99.90;;;;;;5013258;28;20417;-74
2021/01/09 08:29:29;;;;;;;7.30;5.87;;;1.00;99.90;;;;;;4965843;28;20430;-78
2021/01/09 08:31:55;;;;;;;6.23;5.33;;;0.90;99.90;;;;;;5013707;28;21392;-74
2021/01/09 08:34:21;;;;;;;6.13;5.50;;;0.90;99.90;;;;;;5001061;28;20379;-78
2021/01/09 08:36:54;;;;;;;8.38;6.35;;;0.90;99.90;;;;;;4964759;28;20460;-75
2021/01/09 08:39:20;;;;;;;6.33;5.53;;;0.90;99.90;;;;;;5012823;28;20891;-74
2021/01/09 08:41:45;;;;;;;8.73;6.40;;;0.90;99.90;;;;;;4989081;28;20519;-79
2021/01/09 08:44:14;;;;;;;9.60;6.25;;;0.90;99.90;;;;;;4996199;28;20470;-78
2021/01/09 08:46:44;;;;;;;9.18;6.70;;;0.90;99.90;;;;;;5014031;28;20557;-76
2021/01/09 08:49:26;;;;;;;8.40;6.78;;;1.00;99.90;;;;;;4997336;28;20438;-74
2021/01/09 08:52:04;;;;;;;8.35;7.00;;;0.90;99.90;;;;;;4970213;28;20425;-75
2021/01/09 08:54:30;;;;;;;11.48;7.22;;;1.00;99.90;;;;;;5024823;28;20748;-75
2021/01/09 08:56:57;;;;;;;9.05;6.70;;;1.00;99.90;;;;;;5030623;28;20407;-76
2021/01/09 08:59:22;;;;;;;12.18;7.75;;;1.00;99.90;;;;;;5017240;28;20395;-75
2021/01/09 09:01:49;;;;;;;8.60;6.57;;;1.00;99.90;;;;;;5012316;28;21242;-76
2021/01/09 09:04:16;;;;;;;10.35;7.10;;;1.00;99.90;;;;;;5012558;28;20387;-74
2021/01/09 09:06:43;;;;;;;11.25;8.65;;;1.00;99.90;;;;;;5013048;28;20415;-76
2021/01/09 09:09:09;;;;;;;8.68;6.68;;;1.10;99.90;;;;;;5007265;28;20395;-75
2021/01/09 09:11:34;;;;;;;8.10;7.30;;;1.10;99.90;;;;;;4985019;28;20393;-75
2021/01/09 09:14:10;;;;;;;11.73;8.00;;;1.10;99.90;;;;;;5004940;28;20393;-75
2021/01/09 09:16:36;;;;;;;10.32;7.75;;;1.10;99.90;;;;;;4993472;28;20666;-75
2021/01/09 09:19:20;;;;;;;10.07;7.30;;;1.10;99.90;;;;;;5013630;28;21427;-74
2021/01/09 09:21:47;;;;;;;8.60;7.07;;;1.20;99.90;;;;;;4993435;28;20991;-75
2021/01/09 09:24:13;;;;;;;7.85;7.05;;;1.10;99.90;;;;;;5001429;28;20395;-75
2021/01/09 09:26:39;;;;;;;9.23;7.22;;;1.10;99.90;;;;;;5017187;28;20503;-74
2021/01/09 09:29:05;;;;;;;12.15;7.82;;;1.10;99.90;;;;;;5017011;28;20479;-78
2021/01/09 09:31:38;;;;;;;10.20;7.57;;;1.10;99.90;;;;;;5018164;28;20777;-74
2021/01/09 09:34:05;;;;;;;11.18;8.25;;;1.10;99.90;;;;;;4987532;28;21097;-73
2021/01/09 09:36:33;;;;;;;13.80;9.90;;;1.10;99.90;;;;;;4992995;28;20407;-74
2021/01/09 09:39:08;;;;;;;10.82;8.13;;;1.10;99.90;;;;;;4997305;28;20930;-74
2021/01/09 09:41:46;;;;;;;8.95;7.45;;;1.20;99.90;;;;;;5013350;28;20391;-74
2021/01/09 09:44:12;;;;;;;10.55;7.97;;;1.10;99.90;;;;;;4998858;28;20779;-74
2021/01/09 09:46:40;;;;;;;10.38;8.05;;;1.10;99.90;;;;;;4981606;28;20411;-75
2021/01/09 09:49:05;;;;;;;9.05;7.47;;;1.10;99.90;;;;;;5014286;28;20521;-73
2021/01/09 09:51:35;;;;;;;10.30;7.93;;;1.10;99.90;;;;;;5001305;28;20445;-74
2021/01/09 09:54:01;;;;;;;8.75;7.63;;;1.20;99.90;;;;;;4984819;28;20452;-74
2021/01/09 09:56:34;;;;;;;11.23;8.18;;;1.20;99.90;;;;;;4990976;28;20772;-74
2021/01/09 09:59:02;;;;;;;10.25;7.53;;;1.20;99.90;;;;;;4995460;28;20408;-74
2021/01/09 10:01:29;;;;;;;7.93;6.80;;;1.20;99.90;;;;;;4982086;28;20429;-77
2021/01/09 10:03:55;;;;;;;11.43;7.78;;;1.20;99.90;;;;;;4996155;28;20492;-75
2021/01/09 10:06:22;;;;;;;8.80;7.25;;;1.30;99.90;;;;;;4986009;28;20415;-73
2021/01/09 10:08:47;;;;;;;10.67;8.03;;;1.30;99.90;;;;;;4996133;28;20565;-76
2021/01/09 10:11:13;;;;;;;9.10;6.68;;;1.40;99.90;;;;;;4978235;28;20416;-74
2021/01/09 10:13:39;;;;;;;9.63;7.53;;;1.40;99.90;;;;;;5001229;28;20399;-75
2021/01/09 10:16:04;;;;;;;11.40;7.43;;;1.30;99.90;;;;;;5007948;28;20408;-74
2021/01/09 10:18:31;;;;;;;11.20;7.55;;;1.30;99.90;;;;;;5009763;28;20407;-74
2021/01/09 10:20:57;;;;;;;11.07;7.85;;;1.30;99.90;;;;;;5016724;28;20409;-74
2021/01/09 10:23:25;;;;;;;9.57;7.25;;;1.40;99.90;;;;;;4999694;28;21080;-73
2021/01/09 10:25:51;;;;;;;8.00;6.43;;;1.40;99.90;;;;;;4992755;28;20402;-74
2021/01/09 10:28:17;;;;;;;7.63;6.13;;;1.40;99.90;;;;;;4981599;28;20760;-73
2021/01/09 10:30:42;;;;;;;7.90;6.30;;;1.40;99.90;;;;;;4995814;28;20383;-74
2021/01/09 10:33:08;;;;;;;9.10;6.18;;;1.50;99.90;;;;;;5019096;28;20407;-73
2021/01/09 10:35:34;;;;;;;8.48;7.13;;;1.50;99.90;;;;;;5014763;28;20422;-74
2021/01/09 10:38:00;;;;;;;9.30;7.50;;;1.60;99.90;;;;;;4995329;28;20411;-74
2021/01/09 10:40:26;;;;;;;8.57;6.87;;;1.60;99.90;;;;;;4994310;28;20846;-74
2021/01/09 10:42:52;;;;;;;8.37;6.70;;;1.60;99.90;;;;;;5019015;28;20395;-75
2021/01/09 10:45:17;;;;;;;9.50;7.20;;;1.70;99.90;;;;;;4992261;28;20924;-74
2021/01/09 10:47:43;;;;;;;7.72;6.88;;;1.60;99.90;;;;;;4997562;28;20430;-74
2021/01/09 10:50:09;;;;;;;9.40;7.65;;;1.60;99.90;;;;;;5023672;28;20399;-75
2021/01/09 10:52:35;;;;;;;9.80;7.63;;;1.60;99.90;;;;;;5000145;28;20768;-74
2021/01/09 10:55:02;;;;;;;7.10;6.30;;;1.60;99.90;;;;;;4997556;28;20393;-74
2021/01/09 10:57:27;;;;;;;5.35;4.75;;;1.60;99.90;;;;;;5008825;28;20407;-74
2021/01/09 10:59:53;;;;;;;4.15;3.35;;;1.50;99.90;;;;;;4993634;28;20903;-74
2021/01/09 11:02:19;;;;;;;3.72;3.15;;;1.50;99.90;;;;;;5008492;28;20883;-75
2021/01/09 11:04:44;;;;;;;3.50;2.90;;;1.30;99.90;;;;;;5010361;28;20774;-74
2021/01/09 11:07:10;;;;;;;4.60;3.10;;;1.30;99.90;;;;;;4993526;28;20483;-74
2021/01/09 11:09:36;;;;;;;3.10;2.80;;;1.30;99.90;;;;;;4993460;28;20425;-75
2021/01/09 11:12:02;;;;;;;3.67;3.30;;;1.30;99.90;;;;;;5005462;28;20517;-74
2021/01/09 11:14:27;;;;;;;4.63;3.20;;;1.30;99.90;;;;;;4992904;28;20905;-76
2021/01/09 11:16:56;;;;;;;3.17;2.80;;;1.40;99.90;;;;;;5008727;28;20940;-74
2021/01/09 11:19:22;;;;;;;3.50;3.20;;;1.40;99.90;;;;;;5037663;28;20814;-74
2021/01/09 11:21:47;;;;;;;3.80;3.20;;;1.40;99.90;;;;;;4978132;28;20474;-74
2021/01/09 11:24:13;;;;;;;4.03;3.22;;;1.40;99.90;;;;;;4966110;28;20468;-73
2021/01/09 11:26:39;;;;;;;4.00;3.70;;;1.50;99.90;;;;;;4995091;28;20421;-74
2021/01/09 11:29:04;;;;;;;3.07;2.77;;;1.50;99.90;;;;;;5012905;28;20395;-74
2021/01/09 11:31:30;;;;;;;3.47;3.10;;;1.40;99.90;;;;;;5010332;28;20510;-75
2021/01/09 11:33:56;;;;;;;3.88;3.30;;;1.40;99.90;;;;;;5012626;28;20397;-74
2021/01/09 11:36:22;;;;;;;6.37;4.60;;;1.40;99.90;;;;;;4987388;28;20399;-74
2021/01/09 11:38:47;;;;;;;3.60;3.03;;;1.50;99.90;;;;;;4998413;28;20473;-79
2021/01/09 11:41:14;;;;;;;3.22;2.80;;;1.50;99.90;;;;;;4983343;28;20395;-79
2021/01/09 11:43:40;;;;;;;3.10;2.78;;;1.40;99.90;;;;;;4985216;28;20567;-76
2021/01/09 11:46:07;;;;;;;3.00;2.80;;;1.40;99.90;;;;;;4988291;28;20769;-75
2021/01/09 11:48:33;;;;;;;3.13;2.83;;;1.40;99.90;;;;;;5015024;28;20428;-79
2021/01/09 11:51:03;;;;;;;3.65;3.10;;;1.30;99.90;;;;;;5003421;28;20422;-76
2021/01/09 11:53:29;;;;;;;3.95;2.83;;;1.40;99.90;;;;;;5002976;28;20889;-76
2021/01/09 11:55:55;;;;;;;3.95;3.10;;;1.40;99.90;;;;;;4971140;28;20456;-75
2021/01/09 11:58:21;;;;;;;3.43;3.13;;;1.50;99.90;;;;;;5015022;28;20403;-75
2021/01/09 12:00:46;;;;;;;3.20;2.90;;;1.60;99.90;;;;;;4998718;28;20488;-76
2021/01/09 12:03:12;;;;;;;3.17;2.88;;;1.60;99.90;;;;;;4967846;28;20387;-74
2021/01/09 12:05:38;;;;;;;2.70;2.50;;;1.70;99.90;;;;;;4998748;28;20411;-75
2021/01/09 12:08:04;;;;;;;3.13;2.83;;;1.70;99.90;;;;;;4984091;28;20394;-75
2021/01/09 12:10:30;;;;;;;6.07;4.93;;;1.70;99.90;;;;;;4986277;28;20405;-78
2021/01/09 12:12:56;;;;;;;3.28;2.97;;;1.70;99.90;;;;;;5016791;28;20399;-75
2021/01/09 12:15:22;;;;;;;2.60;2.40;;;1.70;99.90;;;;;;4994350;28;20391;-75
2021/01/09 12:17:48;;;;;;;3.10;2.60;;;1.60;99.90;;;;;;5010063;28;20394;-74
2021/01/09 12:20:13;;;;;;;4.17;3.20;;;1.60;99.90;;;;;;4983378;28;20478;-75
2021/01/09 12:22:39;;;;;;;4.22;3.50;;;1.60;99.90;;;;;;4980764;28;20401;-76
2021/01/09 12:25:06;;;;;;;2.72;2.40;;;1.70;99.90;;;;;;4998131;28;20397;-75
2021/01/09 12:27:31;;;;;;;3.20;2.90;;;1.80;99.90;;;;;;5001602;28;20425;-76
2021/01/09 12:29:57;;;;;;;2.10;2.00;;;1.80;99.90;;;;;;5004142;28;20402;-75
2021/01/09 12:32:25;;;;;;;2.10;2.00;;;1.90;99.90;;;;;;5000369;28;20392;-73
2021/01/09 12:34:51;;;;;;;3.78;3.33;;;1.90;99.90;;;;;;5006469;28;20510;-75
2021/01/09 12:37:17;;;;;;;3.17;2.88;;;1.90;99.90;;;;;;5036066;28;20383;-74
2021/01/09 12:39:43;;;;;;;2.77;2.57;;;1.90;99.90;;;;;;4999268;28;20937;-75
2021/01/09 12:42:09;;;;;;;3.15;2.85;;;1.80;99.90;;;;;;5043434;28;20401;-75
2021/01/09 12:44:35;;;;;;;2.42;2.22;;;1.70;99.90;;;;;;5033747;28;20477;-75
2021/01/09 12:47:01;;;;;;;2.53;2.23;;;1.70;99.90;;;;;;5016969;28;20569;-78
2021/01/09 12:49:26;;;;;;;4.45;2.88;;;1.70;99.90;;;;;;5001123;28;20391;-75
2021/01/09 12:51:55;;;;;;;2.65;2.45;;;1.80;99.90;;;;;;4967988;28;20418;-75
2021/01/09 12:54:20;;;;;;;2.42;2.22;;;1.80;99.90;;;;;;5010379;28;20451;-75